• Join FlightAware (Why Join?)
  • Login
  • US Flag 
08:56AM EDT


 

Airport Tracker/Info


-or-


 

Live Flight TrackerFlight Track Log ✈ SLI2614 ✈ 23-Apr-2013 ✈ MMMY / MTY - MMTO / TLC

Flight Track Log - Related Links

Times and Time Zones

All times are in EDT time to prevent confusion due to time zone crossing. See the SLI2614 flight status page for this flight to view local times or setup timezone preferences in your user account.

Time Position Orientation Groundspeed Altitude Reporting Facility
EDT Latitude Longitude Course Direction KTS MPH feet Rate Location/Type
12:01PM 25.4943 -100.0819 175° South  Level Estimated
12:02PM 25.3995 -100.0736 175° South  Level Estimated
12:03PM 25.3048 -100.0653 175° South  Level Estimated
12:04PM 25.2101 -100.0570 175° South  Level Estimated
12:05PM 25.1153 -100.0487 175° South  Level Estimated
12:06PM 25.0206 -100.0405 175° South  Level Estimated
12:07PM 24.9258 -100.0322 175° South  Level Estimated
12:08PM 24.8311 -100.0240 175° South  Level Estimated
12:09PM 24.7363 -100.0158 175° South  Level Estimated
12:10PM 24.6416 -100.0076 175° South  Level Estimated
12:11PM 24.5469 -99.9994 176° South  Level Estimated
12:12PM 24.4521 -99.9912 176° South  Level Estimated
12:13PM 24.3573 -99.9830 176° South  Level Estimated
12:14PM 24.2626 -99.9749 176° South  Level Estimated
12:15PM 24.1679 -99.9667 176° South  Level Estimated
12:16PM 24.0731 -99.9586 176° South  Level Estimated
12:17PM 23.9783 -99.9505 176° South  Level Estimated
12:18PM 23.8836 -99.9424 176° South  Level Estimated
12:19PM 23.7889 -99.9342 176° South  Level Estimated
12:20PM 23.6941 -99.9262 176° South  Level Estimated
12:21PM 23.5993 -99.9181 176° South  Level Estimated
12:22PM 23.5046 -99.9100 176° South  Level Estimated
12:23PM 23.4098 -99.9020 176° South  Level Estimated
12:24PM 23.3151 -99.8940 176° South  Level Estimated
12:25PM 23.2204 -99.8859 176° South  Level Estimated
12:26PM 23.1256 -99.8779 176° South  Level Estimated
12:27PM 23.0308 -99.8699 176° South  Level Estimated
12:28PM 22.9361 -99.8619 176° South  Level Estimated
12:29PM 22.8414 -99.8539 176° South  Level Estimated
12:30PM 22.7466 -99.8460 176° South  Level Estimated
12:31PM 22.6518 -99.8380 176° South  Level Estimated
12:32PM 22.5571 -99.8300 176° South  Level Estimated
12:33PM 22.4624 -99.8221 176° South  Level Estimated
12:34PM 22.3676 -99.8142 176° South  Level Estimated
12:35PM 22.2728 -99.8063 176° South  Level Estimated
12:36PM 22.1781 -99.7983 176° South  Level Estimated
12:37PM 22.0833 -99.7905 176° South  Level Estimated
12:38PM 21.9886 -99.7826 176° South  Level Estimated
12:39PM 21.8938 -99.7747 176° South  Level Estimated
12:40PM 21.7990 -99.7669 176° South  Level Estimated
12:41PM 21.7043 -99.7590 176° South  Level Estimated
12:42PM 21.6095 -99.7512 176° South  Level Estimated
12:43PM 21.5147 -99.7433 176° South  Level Estimated
12:44PM 21.4200 -99.7355 176° South  Level Estimated
12:45PM 21.3252 -99.7277 176° South  Level Estimated
12:46PM 21.2305 -99.7199 176° South  Level Estimated
12:47PM 21.1357 -99.7121 176° South  Level Estimated
12:48PM 21.0410 -99.7043 176° South  Level Estimated
12:49PM 20.9462 -99.6966 176° South  Level Estimated
12:50PM 20.8514 -99.6888 176° South  Level Estimated
12:51PM 20.7567 -99.6811 176° South  Level Estimated
12:52PM 20.6619 -99.6733 176° South  Level Estimated
12:53PM 20.5672 -99.6656 176° South  Level Estimated
12:54PM 20.4724 -99.6578 176° South  Level Estimated
12:55PM 20.3776 -99.6501 176° South  Level Estimated
12:56PM 20.2829 -99.6424 176° South  Level Estimated
12:57PM 20.1881 -99.6347 176° South  Level Estimated
12:58PM 20.0933 -99.6270 176° South  Level Estimated
12:59PM 19.9986 -99.6193 176° South  Level Estimated
01:00PM 19.9038 -99.6117 176° South  Level Estimated
01:01PM 19.8091 -99.6040 176° South  Level Estimated
01:02PM 19.7143 -99.5964 176° South  Level Estimated
01:03PM 19.6195 -99.5887 176° South  Level Estimated
01:04PM 19.5248 -99.5811 176° South  Level Estimated
01:05PM 19.4300 -99.5735 176° South  Level Estimated
01:06PM 19.3371 -99.5660 176° South  Level Estimated
01:07PM 19.3371 -99.5660 43° Northeast  Level Estimated
01:08PM 19.3371 -99.5660 43° Northeast  Level Estimated
01:09PM 19.3371 -99.5660 43° Northeast  Level Estimated
01:10PM 19.3371 -99.5660 43° Northeast  Level Estimated
01:11PM 19.3371 -99.5660 43° Northeast  Level Estimated
01:12PM 19.3371 -99.5660 43° Northeast  Level Estimated
01:13PM 19.3371 -99.5660 43° Northeast  Level Estimated
01:14PM 19.3371 -99.5660 43° Northeast  Level Estimated
01:15PM 19.3371 -99.5660 43° Northeast  Level Estimated
01:16PM 19.3371 -99.5660 43° Northeast  Level Estimated